Yardley, Pennsylvania
Current Conditions -  °F | °C
As of 10:53 PM on Friday 31 Oct 2014 (Local Time) from KTTN Reporting Station
Broken Clouds Broken Clouds  
Wind Chill: 50°   Ceiling: 7500
Heat Index: 50°   Visibility: 10mi
Dew Point: 38°   Wind: 9mph
Humidity: 63%   Direction: 30°NNE
Pressure: 29.84"   Gusts: NA
Location:  40.1994°N, 74.8145°W
Report Text: KTTN 010253Z AUTO 03008KT 10SM BKN075 10/03 A2984 RMK AO2 SLP099 T01000033 56011
Loading
Personal Weather Stations






























Interactive Weather Map New forecast layout! Learn more

10-Day Weather Forecast

Advertisements
Track Severe Weather on mobile